sensor_id;sensor_type;location;lat;lon;timestamp;temperature;humidity
5960;DHT22;3006;50.956;7.002;2023-07-13T00:00:45;22.00;85.60
5960;DHT22;3006;50.956;7.002;2023-07-13T00:03:13;22.00;86.30
5960;DHT22;3006;50.956;7.002;2023-07-13T00:05:41;22.00;85.80
5960;DHT22;3006;50.956;7.002;2023-07-13T00:08:10;22.00;85.50
5960;DHT22;3006;50.956;7.002;2023-07-13T00:10:41;22.00;85.70
5960;DHT22;3006;50.956;7.002;2023-07-13T00:13:11;22.00;86.60
5960;DHT22;3006;50.956;7.002;2023-07-13T00:15:39;21.90;86.30
5960;DHT22;3006;50.956;7.002;2023-07-13T00:18:07;21.90;86.30
5960;DHT22;3006;50.956;7.002;2023-07-13T00:20:35;21.80;86.50
5960;DHT22;3006;50.956;7.002;2023-07-13T00:23:03;21.80;86.60
5960;DHT22;3006;50.956;7.002;2023-07-13T00:25:32;21.80;86.90
5960;DHT22;3006;50.956;7.002;2023-07-13T00:28:00;21.70;87.30
5960;DHT22;3006;50.956;7.002;2023-07-13T00:30:30;21.70;87.50
5960;DHT22;3006;50.956;7.002;2023-07-13T00:32:58;21.70;87.20
5960;DHT22;3006;50.956;7.002;2023-07-13T00:35:43;21.70;87.40
5960;DHT22;3006;50.956;7.002;2023-07-13T00:38:12;21.60;87.70
5960;DHT22;3006;50.956;7.002;2023-07-13T00:40:40;21.60;87.70
5960;DHT22;3006;50.956;7.002;2023-07-13T00:43:12;21.60;87.60
5960;DHT22;3006;50.956;7.002;2023-07-13T00:48:59;21.60;87.90
5960;DHT22;3006;50.956;7.002;2023-07-13T00:51:33;21.60;88.30
5960;DHT22;3006;50.956;7.002;2023-07-13T00:54:06;21.60;88.20
5960;DHT22;3006;50.956;7.002;2023-07-13T00:56:35;21.60;88.30
5960;DHT22;3006;50.956;7.002;2023-07-13T00:59:06;21.40;88.50
5960;DHT22;3006;50.956;7.002;2023-07-13T01:01:36;21.40;88.70
5960;DHT22;3006;50.956;7.002;2023-07-13T01:04:05;21.40;88.90
5960;DHT22;3006;50.956;7.002;2023-07-13T01:06:35;21.40;89.00
5960;DHT22;3006;50.956;7.002;2023-07-13T01:09:05;21.40;88.70
5960;DHT22;3006;50.956;7.002;2023-07-13T01:11:34;21.30;88.80
5960;DHT22;3006;50.956;7.002;2023-07-13T01:14:03;21.20;88.90
5960;DHT22;3006;50.956;7.002;2023-07-13T01:16:33;21.20;89.30
5960;DHT22;3006;50.956;7.002;2023-07-13T01:19:08;21.10;89.50
5960;DHT22;3006;50.956;7.002;2023-07-13T01:21:41;21.00;89.70
5960;DHT22;3006;50.956;7.002;2023-07-13T01:24:09;21.00;90.00
5960;DHT22;3006;50.956;7.002;2023-07-13T01:26:37;20.90;90.10
5960;DHT22;3006;50.956;7.002;2023-07-13T01:29:06;20.80;90.20
5960;DHT22;3006;50.956;7.002;2023-07-13T01:31:37;20.80;90.30
5960;DHT22;3006;50.956;7.002;2023-07-13T01:34:05;20.80;90.40
5960;DHT22;3006;50.956;7.002;2023-07-13T01:36:33;20.70;90.50
5960;DHT22;3006;50.956;7.002;2023-07-13T01:39:03;20.70;90.50
5960;DHT22;3006;50.956;7.002;2023-07-13T01:41:33;20.70;90.60
5960;DHT22;3006;50.956;7.002;2023-07-13T01:44:01;20.60;90.60
5960;DHT22;3006;50.956;7.002;2023-07-13T01:46:30;20.60;90.70
5960;DHT22;3006;50.956;7.002;2023-07-13T01:48:58;20.60;90.70
5960;DHT22;3006;50.956;7.002;2023-07-13T01:51:26;20.60;90.90
5960;DHT22;3006;50.956;7.002;2023-07-13T01:53:54;20.60;90.90
5960;DHT22;3006;50.956;7.002;2023-07-13T01:56:24;20.60;91.00
5960;DHT22;3006;50.956;7.002;2023-07-13T01:58:52;20.50;91.00
5960;DHT22;3006;50.956;7.002;2023-07-13T02:01:21;20.50;91.20
5960;DHT22;3006;50.956;7.002;2023-07-13T02:03:51;20.40;91.30
5960;DHT22;3006;50.956;7.002;2023-07-13T02:06:22;20.40;91.50
5960;DHT22;3006;50.956;7.002;2023-07-13T02:08:50;20.40;91.50
5960;DHT22;3006;50.956;7.002;2023-07-13T02:11:18;20.30;91.60
5960;DHT22;3006;50.956;7.002;2023-07-13T02:13:48;20.30;91.80
5960;DHT22;3006;50.956;7.002;2023-07-13T02:16:19;20.40;91.80
5960;DHT22;3006;50.956;7.002;2023-07-13T02:18:47;20.40;91.90
5960;DHT22;3006;50.956;7.002;2023-07-13T02:21:15;20.40;91.90
5960;DHT22;3006;50.956;7.002;2023-07-13T02:23:44;20.30;92.00
5960;DHT22;3006;50.956;7.002;2023-07-13T02:26:12;20.30;92.30
5960;DHT22;3006;50.956;7.002;2023-07-13T02:28:40;20.30;92.00
5960;DHT22;3006;50.956;7.002;2023-07-13T02:31:12;20.20;92.20
5960;DHT22;3006;50.956;7.002;2023-07-13T02:33:41;20.20;92.30
5960;DHT22;3006;50.956;7.002;2023-07-13T02:36:11;20.20;92.40
5960;DHT22;3006;50.956;7.002;2023-07-13T02:38:40;20.20;92.40
5960;DHT22;3006;50.956;7.002;2023-07-13T02:41:09;20.20;92.40
5960;DHT22;3006;50.956;7.002;2023-07-13T02:43:39;20.20;92.30
5960;DHT22;3006;50.956;7.002;2023-07-13T02:46:10;20.20;92.30
5960;DHT22;3006;50.956;7.002;2023-07-13T02:48:39;20.10;92.30
5960;DHT22;3006;50.956;7.002;2023-07-13T02:51:07;20.10;92.50
5960;DHT22;3006;50.956;7.002;2023-07-13T02:53:36;20.10;92.60
5960;DHT22;3006;50.956;7.002;2023-07-13T02:56:05;20.00;92.70
5960;DHT22;3006;50.956;7.002;2023-07-13T02:58:34;20.00;92.80
5960;DHT22;3006;50.956;7.002;2023-07-13T03:01:07;20.00;92.90
5960;DHT22;3006;50.956;7.002;2023-07-13T03:03:37;19.90;93.00
5960;DHT22;3006;50.956;7.002;2023-07-13T03:06:06;19.90;93.20
5960;DHT22;3006;50.956;7.002;2023-07-13T03:08:46;19.80;93.30
5960;DHT22;3006;50.956;7.002;2023-07-13T03:11:20;19.90;93.50
5960;DHT22;3006;50.956;7.002;2023-07-13T03:13:55;19.90;93.60
5960;DHT22;3006;50.956;7.002;2023-07-13T03:16:24;19.90;93.60
5960;DHT22;3006;50.956;7.002;2023-07-13T03:18:54;19.90;93.30
5960;DHT22;3006;50.956;7.002;2023-07-13T03:21:23;19.90;93.40
5960;DHT22;3006;50.956;7.002;2023-07-13T03:23:52;19.90;93.50
5960;DHT22;3006;50.956;7.002;2023-07-13T03:26:20;19.80;93.90
5960;DHT22;3006;50.956;7.002;2023-07-13T03:28:48;19.80;93.50
5960;DHT22;3006;50.956;7.002;2023-07-13T03:31:26;19.80;93.50
5960;DHT22;3006;50.956;7.002;2023-07-13T03:33:57;19.80;93.60
5960;DHT22;3006;50.956;7.002;2023-07-13T03:36:29;19.80;93.60
5960;DHT22;3006;50.956;7.002;2023-07-13T03:39:02;19.80;93.70
5960;DHT22;3006;50.956;7.002;2023-07-13T03:41:36;19.80;93.60
5960;DHT22;3006;50.956;7.002;2023-07-13T03:44:05;19.80;93.90
5960;DHT22;3006;50.956;7.002;2023-07-13T03:46:34;19.80;93.60
5960;DHT22;3006;50.956;7.002;2023-07-13T03:49:04;19.70;93.60
5960;DHT22;3006;50.956;7.002;2023-07-13T03:51:33;19.70;93.80
5960;DHT22;3006;50.956;7.002;2023-07-13T03:54:01;19.70;93.80
5960;DHT22;3006;50.956;7.002;2023-07-13T03:56:30;19.70;94.00
5960;DHT22;3006;50.956;7.002;2023-07-13T03:59:01;19.60;93.90
5960;DHT22;3006;50.956;7.002;2023-07-13T04:01:30;19.60;94.00
5960;DHT22;3006;50.956;7.002;2023-07-13T04:03:59;19.60;94.10
5960;DHT22;3006;50.956;7.002;2023-07-13T04:06:32;19.60;94.20
5960;DHT22;3006;50.956;7.002;2023-07-13T04:09:01;19.60;94.40
5960;DHT22;3006;50.956;7.002;2023-07-13T04:11:31;19.60;94.40
5960;DHT22;3006;50.956;7.002;2023-07-13T04:13:59;19.60;94.50
5960;DHT22;3006;50.956;7.002;2023-07-13T04:16:27;19.50;94.60
5960;DHT22;3006;50.956;7.002;2023-07-13T04:18:56;19.50;94.80
5960;DHT22;3006;50.956;7.002;2023-07-13T04:21:27;19.60;95.20
5960;DHT22;3006;50.956;7.002;2023-07-13T04:23:57;19.60;95.00
5960;DHT22;3006;50.956;7.002;2023-07-13T04:26:26;19.50;95.00
5960;DHT22;3006;50.956;7.002;2023-07-13T04:28:54;19.50;95.20
5960;DHT22;3006;50.956;7.002;2023-07-13T04:31:23;19.50;95.30
5960;DHT22;3006;50.956;7.002;2023-07-13T04:34:01;19.60;95.30
5960;DHT22;3006;50.956;7.002;2023-07-13T04:36:31;19.60;95.30
5960;DHT22;3006;50.956;7.002;2023-07-13T04:39:00;19.50;95.50
5960;DHT22;3006;50.956;7.002;2023-07-13T04:41:29;19.60;95.60
5960;DHT22;3006;50.956;7.002;2023-07-13T04:43:57;19.60;96.00
5960;DHT22;3006;50.956;7.002;2023-07-13T04:46:25;19.60;95.80
5960;DHT22;3006;50.956;7.002;2023-07-13T04:49:23;19.60;95.80
5960;DHT22;3006;50.956;7.002;2023-07-13T04:51:51;19.60;95.90
5960;DHT22;3006;50.956;7.002;2023-07-13T04:54:20;19.60;96.10
5960;DHT22;3006;50.956;7.002;2023-07-13T04:56:50;19.60;96.20
5960;DHT22;3006;50.956;7.002;2023-07-13T04:59:18;19.60;96.40
5960;DHT22;3006;50.956;7.002;2023-07-13T05:01:46;19.60;96.50
5960;DHT22;3006;50.956;7.002;2023-07-13T05:04:17;19.60;96.30
5960;DHT22;3006;50.956;7.002;2023-07-13T05:06:45;19.60;96.60
5960;DHT22;3006;50.956;7.002;2023-07-13T05:09:13;19.60;96.60
5960;DHT22;3006;50.956;7.002;2023-07-13T05:11:43;19.60;96.70
5960;DHT22;3006;50.956;7.002;2023-07-13T05:14:31;19.50;96.70
5960;DHT22;3006;50.956;7.002;2023-07-13T05:17:00;19.50;97.00
5960;DHT22;3006;50.956;7.002;2023-07-13T05:19:29;19.50;97.00
5960;DHT22;3006;50.956;7.002;2023-07-13T05:22:04;19.50;97.20
5960;DHT22;3006;50.956;7.002;2023-07-13T05:24:32;19.50;97.20
5960;DHT22;3006;50.956;7.002;2023-07-13T05:27:02;19.40;97.50
5960;DHT22;3006;50.956;7.002;2023-07-13T05:29:35;19.50;97.50
5960;DHT22;3006;50.956;7.002;2023-07-13T05:32:07;19.30;97.70
5960;DHT22;3006;50.956;7.002;2023-07-13T05:34:36;19.40;97.90
5960;DHT22;3006;50.956;7.002;2023-07-13T05:37:04;19.40;97.90
5960;DHT22;3006;50.956;7.002;2023-07-13T05:39:33;19.40;98.10
5960;DHT22;3006;50.956;7.002;2023-07-13T05:42:03;19.40;98.30
5960;DHT22;3006;50.956;7.002;2023-07-13T05:44:32;19.40;98.90
5960;DHT22;3006;50.956;7.002;2023-07-13T05:47:00;19.60;98.50
5960;DHT22;3006;50.956;7.002;2023-07-13T05:49:30;19.60;98.60
5960;DHT22;3006;50.956;7.002;2023-07-13T05:51:59;19.50;98.80
5960;DHT22;3006;50.956;7.002;2023-07-13T05:54:29;19.60;98.70
5960;DHT22;3006;50.956;7.002;2023-07-13T05:56:57;19.90;98.60
5960;DHT22;3006;50.956;7.002;2023-07-13T05:59:27;19.80;98.60
5960;DHT22;3006;50.956;7.002;2023-07-13T06:01:55;19.70;98.80
5960;DHT22;3006;50.956;7.002;2023-07-13T06:04:23;19.80;98.70
5960;DHT22;3006;50.956;7.002;2023-07-13T06:06:51;19.80;98.80
5960;DHT22;3006;50.956;7.002;2023-07-13T06:09:19;19.90;98.80
5960;DHT22;3006;50.956;7.002;2023-07-13T06:11:47;19.80;99.10
5960;DHT22;3006;50.956;7.002;2023-07-13T06:14:15;19.80;99.10
5960;DHT22;3006;50.956;7.002;2023-07-13T06:16:45;19.80;99.20
5960;DHT22;3006;50.956;7.002;2023-07-13T06:19:13;19.90;99.20
5960;DHT22;3006;50.956;7.002;2023-07-13T06:21:41;20.00;99.10
5960;DHT22;3006;50.956;7.002;2023-07-13T06:24:09;19.90;99.30
5960;DHT22;3006;50.956;7.002;2023-07-13T06:26:37;19.90;99.60
5960;DHT22;3006;50.956;7.002;2023-07-13T06:29:05;19.70;99.70
5960;DHT22;3006;50.956;7.002;2023-07-13T06:31:33;19.80;99.80
5960;DHT22;3006;50.956;7.002;2023-07-13T06:34:02;19.80;99.90
5960;DHT22;3006;50.956;7.002;2023-07-13T06:36:30;19.70;99.90
5960;DHT22;3006;50.956;7.002;2023-07-13T06:38:59;19.80;99.90
5960;DHT22;3006;50.956;7.002;2023-07-13T06:41:27;19.70;99.90
5960;DHT22;3006;50.956;7.002;2023-07-13T06:43:54;19.70;99.90
5960;DHT22;3006;50.956;7.002;2023-07-13T06:46:23;19.70;99.90
5960;DHT22;3006;50.956;7.002;2023-07-13T06:48:51;19.80;99.90
5960;DHT22;3006;50.956;7.002;2023-07-13T06:51:20;19.90;99.90
5960;DHT22;3006;50.956;7.002;2023-07-13T06:53:49;20.10;99.90
5960;DHT22;3006;50.956;7.002;2023-07-13T06:56:17;20.20;99.90
5960;DHT22;3006;50.956;7.002;2023-07-13T06:58:45;20.30;99.90
5960;DHT22;3006;50.956;7.002;2023-07-13T07:01:13;20.30;99.90
5960;DHT22;3006;50.956;7.002;2023-07-13T07:03:42;20.20;99.90
5960;DHT22;3006;50.956;7.002;2023-07-13T07:06:13;20.10;99.90
5960;DHT22;3006;50.956;7.002;2023-07-13T07:08:43;20.00;99.90
5960;DHT22;3006;50.956;7.002;2023-07-13T07:11:14;20.00;99.90
5960;DHT22;3006;50.956;7.002;2023-07-13T07:13:42;19.90;99.90
5960;DHT22;3006;50.956;7.002;2023-07-13T07:16:10;19.90;99.90
5960;DHT22;3006;50.956;7.002;2023-07-13T07:18:38;19.90;99.90
5960;DHT22;3006;50.956;7.002;2023-07-13T07:21:06;19.90;99.90
5960;DHT22;3006;50.956;7.002;2023-07-13T07:23:36;19.90;99.90
5960;DHT22;3006;50.956;7.002;2023-07-13T07:26:05;20.00;99.90
5960;DHT22;3006;50.956;7.002;2023-07-13T07:28:35;20.10;99.90
5960;DHT22;3006;50.956;7.002;2023-07-13T07:31:07;20.20;99.90
5960;DHT22;3006;50.956;7.002;2023-07-13T07:33:38;20.30;99.90
5960;DHT22;3006;50.956;7.002;2023-07-13T07:36:07;20.40;99.90
5960;DHT22;3006;50.956;7.002;2023-07-13T07:38:38;20.40;99.90
5960;DHT22;3006;50.956;7.002;2023-07-13T07:41:07;20.40;99.90
5960;DHT22;3006;50.956;7.002;2023-07-13T07:43:38;20.40;99.90
5960;DHT22;3006;50.956;7.002;2023-07-13T07:46:06;20.50;99.90
5960;DHT22;3006;50.956;7.002;2023-07-13T07:48:35;20.60;99.90
5960;DHT22;3006;50.956;7.002;2023-07-13T07:51:03;20.70;99.90
5960;DHT22;3006;50.956;7.002;2023-07-13T07:53:31;20.80;99.90
5960;DHT22;3006;50.956;7.002;2023-07-13T07:56:00;20.80;99.90
5960;DHT22;3006;50.956;7.002;2023-07-13T07:58:49;20.80;99.90
5960;DHT22;3006;50.956;7.002;2023-07-13T08:01:21;20.90;99.90
5960;DHT22;3006;50.956;7.002;2023-07-13T08:03:52;20.80;99.90
5960;DHT22;3006;50.956;7.002;2023-07-13T08:06:23;20.90;99.90
5960;DHT22;3006;50.956;7.002;2023-07-13T08:08:54;20.90;99.90
5960;DHT22;3006;50.956;7.002;2023-07-13T08:11:22;21.00;99.90
5960;DHT22;3006;50.956;7.002;2023-07-13T08:13:55;21.00;99.90
5960;DHT22;3006;50.956;7.002;2023-07-13T08:16:23;21.00;99.90
5960;DHT22;3006;50.956;7.002;2023-07-13T08:18:51;21.10;99.90
5960;DHT22;3006;50.956;7.002;2023-07-13T08:21:19;21.20;99.90
5960;DHT22;3006;50.956;7.002;2023-07-13T08:23:48;21.30;99.90
5960;DHT22;3006;50.956;7.002;2023-07-13T08:26:16;21.40;99.90
5960;DHT22;3006;50.956;7.002;2023-07-13T08:28:44;21.40;99.90
5960;DHT22;3006;50.956;7.002;2023-07-13T08:31:14;21.40;99.90
5960;DHT22;3006;50.956;7.002;2023-07-13T08:33:42;21.40;99.80
5960;DHT22;3006;50.956;7.002;2023-07-13T08:36:10;21.50;99.90
5960;DHT22;3006;50.956;7.002;2023-07-13T08:38:39;21.70;99.60
5960;DHT22;3006;50.956;7.002;2023-07-13T08:41:13;21.70;99.50
5960;DHT22;3006;50.956;7.002;2023-07-13T08:43:43;21.70;99.50
5960;DHT22;3006;50.956;7.002;2023-07-13T08:46:18;21.80;99.70
5960;DHT22;3006;50.956;7.002;2023-07-13T08:48:50;21.90;99.70
5960;DHT22;3006;50.956;7.002;2023-07-13T08:51:29;21.80;99.70
5960;DHT22;3006;50.956;7.002;2023-07-13T08:54:01;21.70;99.90
5960;DHT22;3006;50.956;7.002;2023-07-13T08:56:31;21.80;99.80
5960;DHT22;3006;50.956;7.002;2023-07-13T08:59:02;21.90;99.30
5960;DHT22;3006;50.956;7.002;2023-07-13T09:01:48;22.00;99.00
5960;DHT22;3006;50.956;7.002;2023-07-13T09:04:23;22.00;99.10
5960;DHT22;3006;50.956;7.002;2023-07-13T09:07:03;21.90;99.30
5960;DHT22;3006;50.956;7.002;2023-07-13T09:09:43;22.00;99.50
5960;DHT22;3006;50.956;7.002;2023-07-13T09:12:17;22.00;98.90
5960;DHT22;3006;50.956;7.002;2023-07-13T09:14:48;21.80;98.80
5960;DHT22;3006;50.956;7.002;2023-07-13T09:17:22;21.80;98.90
5960;DHT22;3006;50.956;7.002;2023-07-13T09:19:58;21.80;99.10
5960;DHT22;3006;50.956;7.002;2023-07-13T09:22:32;21.80;99.20
5960;DHT22;3006;50.956;7.002;2023-07-13T09:25:05;21.70;98.90
5960;DHT22;3006;50.956;7.002;2023-07-13T09:27:42;21.60;99.00
5960;DHT22;3006;50.956;7.002;2023-07-13T09:30:23;21.60;99.10
5960;DHT22;3006;50.956;7.002;2023-07-13T09:32:53;21.70;99.00
5960;DHT22;3006;50.956;7.002;2023-07-13T09:35:26;21.80;98.90
5960;DHT22;3006;50.956;7.002;2023-07-13T09:37:59;22.00;98.70
5960;DHT22;3006;50.956;7.002;2023-07-13T09:40:40;21.90;98.40
5960;DHT22;3006;50.956;7.002;2023-07-13T09:43:13;21.80;98.30
5960;DHT22;3006;50.956;7.002;2023-07-13T09:45:45;21.80;98.40
5960;DHT22;3006;50.956;7.002;2023-07-13T09:48:16;21.80;98.50
5960;DHT22;3006;50.956;7.002;2023-07-13T09:50:45;21.90;98.60
5960;DHT22;3006;50.956;7.002;2023-07-13T09:53:15;22.00;98.50
5960;DHT22;3006;50.956;7.002;2023-07-13T09:55:45;22.10;98.20
5960;DHT22;3006;50.956;7.002;2023-07-13T09:58:20;22.20;98.10
5960;DHT22;3006;50.956;7.002;2023-07-13T10:00:58;22.40;98.00
5960;DHT22;3006;50.956;7.002;2023-07-13T10:03:29;22.60;98.00
5960;DHT22;3006;50.956;7.002;2023-07-13T10:06:11;22.80;97.70
5960;DHT22;3006;50.956;7.002;2023-07-13T10:08:44;22.80;97.70
5960;DHT22;3006;50.956;7.002;2023-07-13T10:11:19;22.80;97.50
5960;DHT22;3006;50.956;7.002;2023-07-13T10:13:53;22.80;97.60
5960;DHT22;3006;50.956;7.002;2023-07-13T10:16:24;22.90;97.40
5960;DHT22;3006;50.956;7.002;2023-07-13T10:18:57;22.80;97.00
5960;DHT22;3006;50.956;7.002;2023-07-13T10:21:32;22.70;96.90
5960;DHT22;3006;50.956;7.002;2023-07-13T10:24:06;22.80;96.90
5960;DHT22;3006;50.956;7.002;2023-07-13T10:26:42;22.90;96.80
5960;DHT22;3006;50.956;7.002;2023-07-13T10:29:14;22.80;96.80
5960;DHT22;3006;50.956;7.002;2023-07-13T10:31:45;22.80;96.80
5960;DHT22;3006;50.956;7.002;2023-07-13T10:34:14;23.00;96.20
5960;DHT22;3006;50.956;7.002;2023-07-13T10:36:45;23.10;96.00
5960;DHT22;3006;50.956;7.002;2023-07-13T10:39:17;23.10;95.70
5960;DHT22;3006;50.956;7.002;2023-07-13T10:41:49;23.10;95.90
5960;DHT22;3006;50.956;7.002;2023-07-13T10:44:22;23.10;95.90
5960;DHT22;3006;50.956;7.002;2023-07-13T10:46:59;23.10;96.00
5960;DHT22;3006;50.956;7.002;2023-07-13T10:49:31;23.00;96.00
5960;DHT22;3006;50.956;7.002;2023-07-13T10:51:59;23.20;96.00
5960;DHT22;3006;50.956;7.002;2023-07-13T10:54:31;23.10;95.50
5960;DHT22;3006;50.956;7.002;2023-07-13T10:57:18;23.00;95.60
5960;DHT22;3006;50.956;7.002;2023-07-13T10:59:48;23.20;95.70
5960;DHT22;3006;50.956;7.002;2023-07-13T11:02:25;23.20;95.40
5960;DHT22;3006;50.956;7.002;2023-07-13T11:04:56;23.30;95.20
5960;DHT22;3006;50.956;7.002;2023-07-13T11:07:52;23.40;94.60
5960;DHT22;3006;50.956;7.002;2023-07-13T11:10:48;23.40;94.80
5960;DHT22;3006;50.956;7.002;2023-07-13T11:13:36;23.50;94.60
5960;DHT22;3006;50.956;7.002;2023-07-13T11:16:12;23.30;94.70
5960;DHT22;3006;50.956;7.002;2023-07-13T11:18:44;23.20;95.30
5960;DHT22;3006;50.956;7.002;2023-07-13T11:21:16;23.00;95.20
5960;DHT22;3006;50.956;7.002;2023-07-13T11:24:03;23.00;95.40
5960;DHT22;3006;50.956;7.002;2023-07-13T11:26:44;23.00;95.20
5960;DHT22;3006;50.956;7.002;2023-07-13T11:29:32;23.00;95.30
5960;DHT22;3006;50.956;7.002;2023-07-13T11:32:23;22.90;95.70
5960;DHT22;3006;50.956;7.002;2023-07-13T11:34:55;22.90;95.90
5960;DHT22;3006;50.956;7.002;2023-07-13T11:37:24;22.90;96.00
5960;DHT22;3006;50.956;7.002;2023-07-13T11:39:55;23.00;95.70
5960;DHT22;3006;50.956;7.002;2023-07-13T11:42:23;23.10;94.70
5960;DHT22;3006;50.956;7.002;2023-07-13T11:44:53;23.00;95.00
5960;DHT22;3006;50.956;7.002;2023-07-13T11:47:40;23.00;95.50
5960;DHT22;3006;50.956;7.002;2023-07-13T11:50:18;23.00;95.70
5960;DHT22;3006;50.956;7.002;2023-07-13T11:52:47;23.00;95.40
5960;DHT22;3006;50.956;7.002;2023-07-13T11:55:18;23.00;95.40
5960;DHT22;3006;50.956;7.002;2023-07-13T11:57:50;23.00;95.10
5960;DHT22;3006;50.956;7.002;2023-07-13T12:00:23;23.10;95.40
5960;DHT22;3006;50.956;7.002;2023-07-13T12:02:56;23.10;95.10
5960;DHT22;3006;50.956;7.002;2023-07-13T12:05:27;23.20;95.20
5960;DHT22;3006;50.956;7.002;2023-07-13T12:07:57;23.20;95.10
5960;DHT22;3006;50.956;7.002;2023-07-13T12:10:27;23.20;94.50
5960;DHT22;3006;50.956;7.002;2023-07-13T12:12:57;23.20;94.40
5960;DHT22;3006;50.956;7.002;2023-07-13T12:15:32;23.20;94.40
5960;DHT22;3006;50.956;7.002;2023-07-13T12:18:12;23.00;94.80
5960;DHT22;3006;50.956;7.002;2023-07-13T12:20:42;23.10;94.90
5960;DHT22;3006;50.956;7.002;2023-07-13T12:23:21;23.20;94.20
5960;DHT22;3006;50.956;7.002;2023-07-13T12:25:51;23.20;94.10
5960;DHT22;3006;50.956;7.002;2023-07-13T12:28:29;23.20;94.40
5960;DHT22;3006;50.956;7.002;2023-07-13T12:30:59;23.30;94.50
5960;DHT22;3006;50.956;7.002;2023-07-13T12:33:30;23.30;94.40
5960;DHT22;3006;50.956;7.002;2023-07-13T12:36:03;23.30;94.10
5960;DHT22;3006;50.956;7.002;2023-07-13T12:38:32;23.50;93.70
5960;DHT22;3006;50.956;7.002;2023-07-13T12:41:01;23.50;93.60
5960;DHT22;3006;50.956;7.002;2023-07-13T12:43:34;23.60;93.40
5960;DHT22;3006;50.956;7.002;2023-07-13T12:46:16;23.70;93.20
5960;DHT22;3006;50.956;7.002;2023-07-13T12:48:48;23.70;93.00
5960;DHT22;3006;50.956;7.002;2023-07-13T12:51:37;23.80;93.00
5960;DHT22;3006;50.956;7.002;2023-07-13T12:54:13;24.00;92.90
5960;DHT22;3006;50.956;7.002;2023-07-13T12:56:43;24.10;93.10
5960;DHT22;3006;50.956;7.002;2023-07-13T12:59:18;24.10;92.80
5960;DHT22;3006;50.956;7.002;2023-07-13T13:01:47;24.30;92.80
5960;DHT22;3006;50.956;7.002;2023-07-13T13:04:17;24.40;92.00
5960;DHT22;3006;50.956;7.002;2023-07-13T13:07:00;24.60;91.70
5960;DHT22;3006;50.956;7.002;2023-07-13T13:09:29;24.80;91.60
5960;DHT22;3006;50.956;7.002;2023-07-13T13:11:57;25.00;91.70
5960;DHT22;3006;50.956;7.002;2023-07-13T13:14:25;25.10;91.10
5960;DHT22;3006;50.956;7.002;2023-07-13T13:16:54;25.20;90.90
5960;DHT22;3006;50.956;7.002;2023-07-13T13:19:24;25.20;91.20
5960;DHT22;3006;50.956;7.002;2023-07-13T13:21:54;25.30;90.90
5960;DHT22;3006;50.956;7.002;2023-07-13T13:24:26;25.40;90.70
5960;DHT22;3006;50.956;7.002;2023-07-13T13:26:55;25.50;90.60
5960;DHT22;3006;50.956;7.002;2023-07-13T13:29:25;25.40;90.10
5960;DHT22;3006;50.956;7.002;2023-07-13T13:31:54;25.50;90.10
5960;DHT22;3006;50.956;7.002;2023-07-13T13:34:24;25.60;88.70
5960;DHT22;3006;50.956;7.002;2023-07-13T13:36:54;25.70;88.30
5960;DHT22;3006;50.956;7.002;2023-07-13T13:39:31;25.90;89.20
5960;DHT22;3006;50.956;7.002;2023-07-13T13:42:00;25.90;88.10
5960;DHT22;3006;50.956;7.002;2023-07-13T13:44:29;25.80;86.20
5960;DHT22;3006;50.956;7.002;2023-07-13T13:46:57;25.80;86.60
5960;DHT22;3006;50.956;7.002;2023-07-13T13:49:27;25.70;87.00
5960;DHT22;3006;50.956;7.002;2023-07-13T13:51:57;25.70;86.90
5960;DHT22;3006;50.956;7.002;2023-07-13T13:54:26;25.70;87.10
5960;DHT22;3006;50.956;7.002;2023-07-13T13:56:55;25.60;87.90
5960;DHT22;3006;50.956;7.002;2023-07-13T13:59:26;25.60;87.00
5960;DHT22;3006;50.956;7.002;2023-07-13T14:01:54;25.40;87.60
5960;DHT22;3006;50.956;7.002;2023-07-13T14:04:26;25.50;88.70
5960;DHT22;3006;50.956;7.002;2023-07-13T14:06:54;25.50;87.80
5960;DHT22;3006;50.956;7.002;2023-07-13T14:09:24;25.40;88.00
5960;DHT22;3006;50.956;7.002;2023-07-13T14:11:52;25.30;87.50
5960;DHT22;3006;50.956;7.002;2023-07-13T14:14:22;25.20;87.60
5960;DHT22;3006;50.956;7.002;2023-07-13T14:16:55;25.30;87.40
5960;DHT22;3006;50.956;7.002;2023-07-13T14:19:24;25.60;87.50
5960;DHT22;3006;50.956;7.002;2023-07-13T14:21:53;25.90;87.70
5960;DHT22;3006;50.956;7.002;2023-07-13T14:24:21;26.20;86.80
5960;DHT22;3006;50.956;7.002;2023-07-13T14:26:51;26.30;86.00
5960;DHT22;3006;50.956;7.002;2023-07-13T14:29:20;26.50;86.60
5960;DHT22;3006;50.956;7.002;2023-07-13T14:31:50;26.60;85.10
5960;DHT22;3006;50.956;7.002;2023-07-13T14:34:20;26.60;84.40
5960;DHT22;3006;50.956;7.002;2023-07-13T14:36:49;26.60;84.50
5960;DHT22;3006;50.956;7.002;2023-07-13T14:39:19;26.70;84.30
5960;DHT22;3006;50.956;7.002;2023-07-13T14:41:52;26.90;84.50
5960;DHT22;3006;50.956;7.002;2023-07-13T14:44:22;26.90;84.60
5960;DHT22;3006;50.956;7.002;2023-07-13T14:46:53;26.60;82.90
5960;DHT22;3006;50.956;7.002;2023-07-13T14:49:24;26.40;83.90
5960;DHT22;3006;50.956;7.002;2023-07-13T14:51:55;26.60;84.20
5960;DHT22;3006;50.956;7.002;2023-07-13T14:54:24;26.70;84.30
5960;DHT22;3006;50.956;7.002;2023-07-13T14:56:54;27.00;83.70
5960;DHT22;3006;50.956;7.002;2023-07-13T14:59:22;26.80;82.70
5960;DHT22;3006;50.956;7.002;2023-07-13T15:01:51;26.90;82.90
5960;DHT22;3006;50.956;7.002;2023-07-13T15:04:20;27.10;82.40
5960;DHT22;3006;50.956;7.002;2023-07-13T15:06:53;27.30;82.10
5960;DHT22;3006;50.956;7.002;2023-07-13T15:09:21;27.00;81.80
5960;DHT22;3006;50.956;7.002;2023-07-13T15:11:51;26.90;82.70
5960;DHT22;3006;50.956;7.002;2023-07-13T15:14:20;27.10;82.20
5960;DHT22;3006;50.956;7.002;2023-07-13T15:16:50;27.20;82.30
5960;DHT22;3006;50.956;7.002;2023-07-13T15:19:19;27.20;82.00
5960;DHT22;3006;50.956;7.002;2023-07-13T15:21:48;27.10;81.70
5960;DHT22;3006;50.956;7.002;2023-07-13T15:24:16;27.10;81.30
5960;DHT22;3006;50.956;7.002;2023-07-13T15:26:44;27.40;79.20
5960;DHT22;3006;50.956;7.002;2023-07-13T15:29:15;27.40;78.80
5960;DHT22;3006;50.956;7.002;2023-07-13T15:31:45;27.40;79.00
5960;DHT22;3006;50.956;7.002;2023-07-13T15:34:15;27.30;79.60
5960;DHT22;3006;50.956;7.002;2023-07-13T15:36:45;27.30;80.10
5960;DHT22;3006;50.956;7.002;2023-07-13T15:39:14;27.40;80.00
5960;DHT22;3006;50.956;7.002;2023-07-13T15:41:43;27.50;80.00
5960;DHT22;3006;50.956;7.002;2023-07-13T15:44:24;27.40;79.50
5960;DHT22;3006;50.956;7.002;2023-07-13T15:46:54;26.90;80.20
5960;DHT22;3006;50.956;7.002;2023-07-13T15:49:23;26.60;80.40
5960;DHT22;3006;50.956;7.002;2023-07-13T15:51:51;26.20;81.50
5960;DHT22;3006;50.956;7.002;2023-07-13T15:54:19;26.00;82.30
5960;DHT22;3006;50.956;7.002;2023-07-13T15:56:53;25.90;82.70
5960;DHT22;3006;50.956;7.002;2023-07-13T15:59:22;25.70;82.90
5960;DHT22;3006;50.956;7.002;2023-07-13T16:01:50;25.30;83.70
5960;DHT22;3006;50.956;7.002;2023-07-13T16:04:20;25.10;84.20
5960;DHT22;3006;50.956;7.002;2023-07-13T16:06:48;24.80;84.90
5960;DHT22;3006;50.956;7.002;2023-07-13T16:09:19;24.70;87.60
5960;DHT22;3006;50.956;7.002;2023-07-13T16:11:49;24.40;90.10
5960;DHT22;3006;50.956;7.002;2023-07-13T16:14:19;24.10;90.90
5960;DHT22;3006;50.956;7.002;2023-07-13T16:16:51;24.00;91.50
5960;DHT22;3006;50.956;7.002;2023-07-13T16:19:24;23.60;92.30
5960;DHT22;3006;50.956;7.002;2023-07-13T16:21:57;23.40;93.00
5960;DHT22;3006;50.956;7.002;2023-07-13T16:24:27;23.40;93.20
5960;DHT22;3006;50.956;7.002;2023-07-13T16:26:55;23.30;92.90
5960;DHT22;3006;50.956;7.002;2023-07-13T16:29:26;23.20;93.00